createdAt,value
2019-02-05T00:01:17.516Z,5.40
2019-02-05T00:03:45.966Z,5.58
2019-02-05T00:06:14.263Z,5.35
2019-02-05T00:08:42.622Z,5.20
2019-02-05T00:11:11.000Z,4.72
2019-02-05T00:13:39.428Z,5.55
2019-02-05T00:16:13.875Z,5.28
2019-02-05T00:18:42.228Z,4.92
2019-02-05T00:21:11.014Z,5.20
2019-02-05T00:23:39.954Z,4.70
2019-02-05T00:26:08.260Z,5.33
2019-02-05T00:28:36.665Z,5.15
2019-02-05T00:31:05.687Z,5.58
2019-02-05T00:33:34.664Z,5.08
2019-02-05T00:36:03.020Z,5.17
2019-02-05T00:38:31.615Z,5.90
2019-02-05T00:40:59.972Z,5.33
2019-02-05T00:43:28.593Z,5.65
2019-02-05T00:45:57.001Z,5.20
2019-02-05T00:48:25.352Z,5.10
2019-02-05T00:50:53.753Z,5.30
2019-02-05T00:53:22.926Z,5.55
2019-02-05T00:55:51.310Z,5.37
2019-02-05T00:58:19.659Z,5.70
2019-02-05T01:00:48.012Z,5.22
2019-02-05T01:03:16.398Z,5.72
2019-02-05T01:05:44.756Z,5.58
2019-02-05T01:08:13.499Z,5.37
2019-02-05T01:10:41.863Z,5.95
2019-02-05T01:13:10.561Z,5.42
2019-02-05T01:15:38.946Z,5.87
2019-02-05T01:18:07.304Z,5.08
2019-02-05T01:20:35.694Z,6.08
2019-02-05T01:23:04.049Z,5.95
2019-02-05T01:25:32.634Z,5.47
2019-02-05T01:28:20.436Z,5.12
2019-02-05T01:30:48.827Z,5.22
2019-02-05T01:33:17.179Z,5.17
2019-02-05T01:35:45.820Z,4.92
2019-02-05T01:38:14.207Z,5.08
2019-02-05T01:40:43.195Z,5.30
2019-02-05T01:43:11.580Z,5.42
2019-02-05T01:45:39.937Z,5.30
2019-02-05T01:48:08.632Z,5.28
2019-02-05T01:50:37.019Z,5.33
2019-02-05T01:53:05.573Z,5.03
2019-02-05T01:55:34.717Z,5.75
2019-02-05T01:58:03.471Z,4.90
2019-02-05T02:00:34.104Z,5.03
2019-02-05T02:03:02.455Z,5.00
2019-02-05T02:05:30.816Z,5.37
2019-02-05T02:08:00.742Z,5.78
2019-02-05T02:10:30.019Z,5.08
2019-02-05T02:12:58.751Z,5.62
2019-02-05T02:15:27.121Z,5.65
2019-02-05T02:17:55.483Z,5.80
2019-02-05T02:20:23.864Z,6.50
2019-02-05T02:22:52.257Z,5.87
2019-02-05T02:25:20.618Z,5.97
2019-02-05T02:27:49.859Z,5.53
2019-02-05T02:30:26.709Z,4.92
2019-02-05T02:32:55.102Z,5.85
2019-02-05T02:35:23.462Z,6.17
2019-02-05T02:37:52.118Z,5.95
2019-02-05T02:40:20.504Z,6.37
2019-02-05T02:42:50.975Z,5.53
2019-02-05T02:45:19.327Z,6.00
2019-02-05T02:47:47.712Z,6.70
2019-02-05T02:50:37.122Z,5.97
2019-02-05T02:53:05.502Z,6.60
2019-02-05T02:55:33.885Z,6.37
2019-02-05T02:58:02.308Z,6.90
2019-02-05T03:00:30.702Z,5.78
2019-02-05T03:02:59.061Z,6.12
2019-02-05T03:05:27.951Z,5.97
2019-02-05T03:07:56.316Z,6.72
2019-02-05T03:10:29.886Z,6.62
2019-02-05T03:12:58.645Z,5.92
2019-02-05T03:15:27.568Z,6.28
2019-02-05T03:17:56.726Z,6.83
2019-02-05T03:20:25.071Z,7.37
2019-02-05T03:22:53.836Z,6.92
2019-02-05T03:25:23.973Z,6.65
2019-02-05T03:27:53.700Z,6.42
2019-02-05T03:30:24.559Z,6.87
2019-02-05T03:32:55.244Z,7.25
2019-02-05T03:38:19.368Z,7.12
2019-02-05T03:41:07.254Z,6.83
2019-02-05T03:48:31.345Z,6.45
2019-02-05T03:51:20.779Z,6.92
2019-02-05T03:57:32.095Z,7.00
2019-02-05T04:00:14.549Z,7.17
2019-02-05T04:03:12.968Z,7.90
2019-02-05T04:06:17.663Z,7.08
2019-02-05T04:09:07.092Z,8.03
2019-02-05T04:11:41.604Z,7.28
2019-02-05T04:14:33.709Z,6.65
2019-02-05T04:17:23.116Z,7.50
2019-02-05T04:20:12.891Z,7.80
2019-02-05T04:25:58.242Z,8.28
2019-02-05T04:28:55.843Z,7.47
2019-02-05T04:31:56.252Z,7.47
2019-02-05T04:34:47.332Z,7.08
2019-02-05T04:37:40.239Z,7.67
2019-02-05T04:40:39.315Z,7.28
2019-02-05T04:43:40.743Z,7.58
2019-02-05T04:49:29.891Z,7.28
2019-02-05T04:52:16.331Z,7.40
2019-02-05T04:55:05.781Z,8.45
2019-02-05T04:57:37.401Z,8.23
2019-02-05T05:00:26.820Z,8.30
2019-02-05T05:03:07.306Z,7.65
2019-02-05T05:06:06.116Z,7.70
2019-02-05T05:08:58.240Z,6.83
2019-02-05T05:11:26.629Z,7.70
2019-02-05T05:13:56.084Z,8.20
2019-02-05T05:16:24.717Z,8.30
2019-02-05T05:18:53.090Z,8.85
2019-02-05T05:21:21.461Z,8.60
2019-02-05T05:23:50.027Z,8.53
2019-02-05T05:26:19.351Z,8.15
2019-02-05T05:28:47.709Z,8.38
2019-02-05T05:31:16.174Z,9.23
2019-02-05T05:33:44.893Z,8.83
2019-02-05T05:36:13.392Z,9.10
2019-02-05T05:38:41.780Z,9.48
2019-02-05T05:41:10.171Z,9.05
2019-02-05T05:43:38.632Z,9.98
2019-02-05T05:46:06.990Z,8.85
2019-02-05T05:48:35.439Z,9.45
2019-02-05T05:51:03.820Z,8.70
2019-02-05T05:53:32.279Z,9.03
2019-02-05T05:56:00.666Z,10.15
2019-02-05T05:58:29.029Z,9.55
2019-02-05T06:00:57.715Z,10.05
2019-02-05T06:03:26.354Z,9.85
2019-02-05T06:05:55.651Z,9.33
2019-02-05T06:08:24.035Z,10.08
2019-02-05T06:10:52.394Z,8.58
2019-02-05T06:13:20.771Z,8.95
2019-02-05T06:15:49.129Z,9.10
2019-02-05T06:18:17.871Z,8.55
2019-02-05T06:20:46.285Z,8.68
2019-02-05T06:23:14.646Z,9.25
2019-02-05T06:25:43.037Z,8.88
2019-02-05T06:28:11.399Z,9.23
2019-02-05T06:30:40.422Z,9.65
2019-02-05T06:33:08.826Z,9.55
2019-02-05T06:35:37.496Z,9.55
2019-02-05T06:38:05.850Z,9.33
2019-02-05T06:40:34.230Z,9.05
2019-02-05T06:43:02.609Z,8.95
2019-02-05T06:45:31.227Z,8.88
2019-02-05T06:47:59.697Z,8.78
2019-02-05T06:50:28.639Z,9.40
2019-02-05T06:52:57.921Z,9.30
2019-02-05T06:55:26.291Z,9.30
2019-02-05T06:57:54.956Z,8.35
2019-02-05T07:00:23.819Z,9.30
2019-02-05T07:02:53.322Z,8.78
2019-02-05T07:05:22.019Z,9.30
2019-02-05T07:07:51.378Z,9.28
2019-02-05T07:10:25.052Z,8.13
2019-02-05T07:12:53.443Z,8.85
2019-02-05T07:15:41.250Z,9.33
2019-02-05T07:18:09.612Z,9.85
2019-02-05T07:20:38.312Z,9.33
2019-02-05T07:23:07.348Z,8.48
2019-02-05T07:25:36.463Z,9.78
2019-02-05T07:28:04.845Z,9.98
2019-02-05T07:30:33.199Z,9.68
2019-02-05T07:33:01.582Z,10.20
2019-02-05T07:35:29.973Z,10.20
2019-02-05T07:38:18.459Z,10.00
2019-02-05T07:40:46.819Z,10.00
2019-02-05T07:43:15.175Z,10.48
2019-02-05T07:45:43.567Z,10.23
2019-02-05T07:48:11.922Z,10.63
2019-02-05T07:50:40.962Z,10.40
2019-02-05T07:53:09.952Z,9.98
2019-02-05T07:55:38.327Z,9.73
2019-02-05T07:58:06.699Z,10.43
2019-02-05T08:00:35.756Z,11.18
2019-02-05T08:03:04.329Z,10.30
2019-02-05T08:05:34.139Z,10.90
2019-02-05T08:08:21.930Z,10.00
2019-02-05T08:10:50.318Z,9.68
2019-02-05T08:13:20.323Z,9.85
2019-02-05T08:15:48.701Z,10.38
2019-02-05T08:18:17.293Z,10.03
2019-02-05T08:20:45.684Z,10.08
2019-02-05T08:23:14.057Z,11.55
2019-02-05T08:25:43.238Z,9.78
2019-02-05T08:28:11.607Z,10.60
2019-02-05T08:31:04.263Z,10.72
2019-02-05T08:33:32.728Z,10.63
2019-02-05T08:36:01.089Z,10.30
2019-02-05T08:38:29.580Z,10.68
2019-02-05T08:40:59.336Z,9.93
2019-02-05T08:43:28.000Z,10.60
2019-02-05T08:45:57.085Z,9.88
2019-02-05T08:48:25.555Z,9.80
2019-02-05T08:50:54.251Z,10.03
2019-02-05T08:53:22.626Z,9.75
2019-02-05T08:55:51.226Z,10.40
2019-02-05T08:58:30.340Z,9.75
2019-02-05T09:00:49.605Z,11.18
2019-02-05T09:03:17.990Z,9.60
2019-02-05T09:05:46.346Z,10.00
2019-02-05T09:08:15.049Z,9.65
2019-02-05T09:10:43.499Z,9.03
2019-02-05T09:13:12.259Z,9.58
2019-02-05T09:15:40.639Z,9.50
2019-02-05T09:18:10.299Z,10.45
2019-02-05T09:20:38.704Z,10.30
2019-02-05T09:23:07.738Z,9.98
2019-02-05T09:25:36.098Z,9.08
2019-02-05T09:28:04.568Z,10.30
2019-02-05T09:30:36.855Z,10.23
2019-02-05T09:33:14.010Z,9.75
2019-02-05T09:35:42.379Z,9.93
2019-02-05T09:38:10.732Z,9.98
2019-02-05T09:40:39.520Z,9.63
2019-02-05T09:43:07.910Z,10.18
2019-02-05T09:45:36.896Z,10.65
2019-02-05T09:48:05.864Z,9.15
2019-02-05T09:50:44.340Z,10.10
2019-02-05T09:53:04.568Z,9.23
2019-02-05T09:55:35.835Z,10.10
2019-02-05T09:58:02.959Z,9.80
2019-02-05T10:00:59.753Z,9.93
2019-02-05T10:03:28.303Z,9.80
2019-02-05T10:05:56.662Z,9.98
2019-02-05T10:08:25.054Z,10.43
2019-02-05T10:10:53.406Z,10.28
2019-02-05T10:13:21.974Z,10.48
2019-02-05T10:15:50.378Z,10.48
2019-02-05T10:18:18.743Z,8.93
2019-02-05T10:20:47.103Z,10.15
2019-02-05T10:23:15.508Z,9.83
2019-02-05T10:25:43.871Z,10.72
2019-02-05T10:28:12.999Z,9.93
2019-02-05T10:30:43.416Z,9.93
2019-02-05T10:33:11.851Z,9.88
2019-02-05T10:35:40.307Z,10.60
2019-02-05T10:38:09.250Z,10.82
2019-02-05T10:40:37.702Z,9.35
2019-02-05T10:43:07.171Z,10.18
2019-02-05T10:45:35.856Z,10.05
2019-02-05T10:48:05.474Z,9.68
2019-02-05T10:50:33.846Z,10.18
2019-02-05T10:53:02.208Z,10.03
2019-02-05T10:55:32.307Z,11.00
2019-02-05T10:58:00.668Z,10.10
2019-02-05T11:00:31.756Z,9.18
2019-02-05T11:03:07.965Z,10.32
2019-02-05T11:05:36.374Z,9.95
2019-02-05T11:08:04.896Z,10.13
2019-02-05T11:10:33.262Z,10.90
2019-02-05T11:13:01.809Z,10.88
2019-02-05T11:15:32.123Z,10.00
2019-02-05T11:18:01.753Z,9.65
2019-02-05T11:20:30.887Z,10.43
2019-02-05T11:22:59.699Z,10.48
2019-02-05T11:25:28.149Z,10.18
2019-02-05T11:27:56.583Z,10.60
2019-02-05T11:30:46.013Z,10.00
2019-02-05T11:33:14.779Z,9.85
2019-02-05T11:35:43.133Z,9.63
2019-02-05T11:38:11.690Z,10.85
2019-02-05T11:40:40.525Z,9.75
2019-02-05T11:43:08.951Z,11.12
2019-02-05T11:45:37.338Z,10.48
2019-02-05T11:48:11.738Z,10.95
2019-02-05T11:50:40.098Z,10.23
2019-02-05T11:53:08.498Z,11.10
2019-02-05T11:55:37.729Z,9.50
2019-02-05T11:58:06.416Z,10.78
2019-02-05T12:03:26.468Z,9.45
2019-02-05T12:05:54.947Z,10.60
2019-02-05T12:08:23.324Z,10.40
2019-02-05T12:10:51.751Z,10.98
2019-02-05T12:13:20.343Z,10.20
2019-02-05T12:15:48.695Z,10.03
2019-02-05T12:18:17.334Z,10.43
2019-02-05T12:20:46.185Z,10.65
2019-02-05T12:23:14.547Z,10.32
2019-02-05T12:25:42.975Z,10.50
2019-02-05T12:28:11.359Z,9.85
2019-02-05T12:30:44.833Z,10.23
2019-02-05T12:33:11.180Z,10.55
2019-02-05T12:35:39.948Z,10.30
2019-02-05T12:38:08.876Z,10.90
2019-02-05T12:40:37.828Z,10.53
2019-02-05T12:43:06.198Z,10.68
2019-02-05T12:45:38.388Z,11.60
2019-02-05T12:48:07.254Z,11.25
2019-02-05T12:50:41.146Z,11.15
2019-02-05T12:53:10.053Z,10.80
2019-02-05T12:55:38.502Z,10.55
2019-02-05T12:58:07.055Z,11.20
2019-02-05T13:01:01.121Z,10.82
2019-02-05T13:03:30.249Z,10.03
2019-02-05T13:05:58.607Z,10.23
2019-02-05T13:08:27.003Z,10.65
2019-02-05T13:10:55.426Z,10.50
2019-02-05T13:13:23.800Z,10.48
2019-02-05T13:15:52.209Z,10.58
2019-02-05T13:18:21.091Z,10.38
2019-02-05T13:20:50.139Z,9.90
2019-02-05T13:23:18.844Z,10.78
2019-02-05T13:25:47.198Z,10.43
2019-02-05T13:28:15.592Z,10.03
2019-02-05T13:30:43.958Z,10.25
2019-02-05T13:33:12.423Z,10.50
2019-02-05T13:35:40.928Z,10.80
2019-02-05T13:38:09.327Z,11.00
2019-02-05T13:40:38.012Z,10.40
2019-02-05T13:43:06.558Z,10.00
2019-02-05T13:45:37.281Z,11.03
2019-02-05T13:48:06.365Z,11.28
2019-02-05T13:50:34.752Z,10.80
2019-02-05T13:53:03.216Z,10.58
2019-02-05T13:55:35.186Z,9.80
2019-02-05T13:58:03.915Z,10.28
2019-02-05T14:00:38.151Z,10.40
2019-02-05T14:03:08.575Z,10.95
2019-02-05T14:05:37.196Z,10.63
2019-02-05T14:08:05.593Z,10.28
2019-02-05T14:10:36.745Z,10.38
2019-02-05T14:13:05.661Z,10.25
2019-02-05T14:15:36.510Z,10.10
2019-02-05T14:18:06.111Z,10.58
2019-02-05T14:20:34.611Z,11.15
2019-02-05T14:23:02.986Z,10.50
2019-02-05T14:25:31.362Z,10.35
2019-02-05T14:27:59.768Z,11.22
2019-02-05T14:30:39.703Z,10.85
2019-02-05T14:33:27.580Z,11.50
2019-02-05T14:35:55.937Z,10.95
2019-02-05T14:38:24.995Z,10.55
2019-02-05T14:41:12.783Z,11.35
2019-02-05T14:43:41.173Z,11.50
2019-02-05T14:46:09.539Z,11.43
2019-02-05T14:48:37.909Z,11.15
2019-02-05T14:51:06.299Z,11.93
2019-02-05T14:53:34.667Z,10.32
2019-02-05T14:56:03.507Z,10.65
2019-02-05T14:58:32.675Z,11.80
2019-02-05T15:01:01.048Z,10.23
2019-02-05T15:03:29.426Z,11.05
2019-02-05T15:05:57.816Z,10.98
2019-02-05T15:08:26.184Z,10.70
2019-02-05T15:10:55.049Z,11.50
2019-02-05T15:13:23.455Z,11.78
2019-02-05T15:15:51.817Z,10.95
2019-02-05T15:18:20.175Z,10.82
2019-02-05T15:20:48.728Z,10.93
2019-02-05T15:23:17.119Z,11.25
2019-02-05T15:25:45.572Z,10.53
2019-02-05T15:28:13.962Z,11.73
2019-02-05T15:30:45.569Z,11.28
2019-02-05T15:33:18.012Z,11.20
2019-02-05T15:35:51.063Z,10.32
2019-02-05T15:38:20.356Z,10.75
2019-02-05T15:40:49.519Z,10.55
2019-02-05T15:43:17.876Z,11.57
2019-02-05T15:45:46.550Z,11.08
2019-02-05T15:48:14.958Z,10.72
2019-02-05T15:50:43.343Z,11.83
2019-02-05T15:53:12.535Z,11.73
2019-02-05T15:55:41.733Z,11.40
2019-02-05T15:58:10.095Z,11.48
2019-02-05T16:00:38.541Z,12.25
2019-02-05T16:03:07.535Z,11.60
2019-02-05T16:05:35.919Z,11.80
2019-02-05T16:08:04.523Z,12.78
2019-02-05T16:10:33.332Z,12.80
2019-02-05T16:13:02.971Z,11.75
2019-02-05T16:15:31.710Z,12.10
2019-02-05T16:18:19.538Z,12.18
2019-02-05T16:20:48.243Z,11.88
2019-02-05T16:23:17.025Z,11.80
2019-02-05T16:26:04.847Z,11.88
2019-02-05T16:28:33.202Z,12.35
2019-02-05T16:31:02.372Z,11.25
2019-02-05T16:33:30.740Z,12.13
2019-02-05T16:35:59.505Z,11.93
2019-02-05T16:38:28.563Z,12.13
2019-02-05T16:40:56.934Z,12.35
2019-02-05T16:43:27.886Z,11.95
2019-02-05T16:45:56.289Z,13.05
2019-02-05T16:48:24.656Z,11.57
2019-02-05T16:50:53.463Z,11.78
2019-02-05T16:53:21.855Z,12.00
2019-02-05T16:55:50.787Z,11.55
2019-02-05T16:58:19.152Z,12.40
2019-02-05T17:00:47.551Z,12.05
2019-02-05T17:03:15.949Z,12.65
2019-02-05T17:05:44.342Z,12.88
2019-02-05T17:08:13.572Z,13.53
2019-02-05T17:10:42.734Z,12.98
2019-02-05T17:13:11.901Z,13.53
2019-02-05T17:15:40.686Z,13.35
2019-02-05T17:18:09.357Z,14.35
2019-02-05T17:20:39.240Z,13.32
2019-02-05T17:23:08.008Z,13.32
2019-02-05T17:25:36.469Z,13.03
2019-02-05T17:28:06.580Z,13.48
2019-02-05T17:30:59.278Z,11.38
2019-02-05T17:33:28.052Z,12.50
2019-02-05T17:35:56.470Z,14.15
2019-02-05T17:38:25.660Z,13.53
2019-02-05T17:40:54.750Z,12.90
2019-02-05T17:43:23.336Z,12.68
2019-02-05T17:45:51.715Z,13.85
2019-02-05T17:48:20.343Z,14.00
2019-02-05T17:50:49.369Z,12.75
2019-02-05T17:53:17.796Z,13.40
2019-02-05T17:55:46.172Z,12.45
2019-02-05T17:58:15.480Z,13.20
2019-02-05T18:00:45.497Z,13.20
2019-02-05T18:03:13.856Z,12.85
2019-02-05T18:05:42.249Z,13.03
2019-02-05T18:08:10.607Z,13.98
2019-02-05T18:10:41.861Z,13.62
2019-02-05T18:13:09.345Z,14.40
2019-02-05T18:15:39.823Z,13.20
2019-02-05T18:18:08.776Z,12.93
2019-02-05T18:20:37.552Z,13.25
2019-02-05T18:23:05.934Z,13.98
2019-02-05T18:25:34.310Z,13.85
2019-02-05T18:28:02.677Z,14.85
2019-02-05T18:30:37.012Z,13.75
2019-02-05T18:33:06.192Z,14.40
2019-02-05T18:35:34.727Z,14.68
2019-02-05T18:38:06.208Z,14.07
2019-02-05T18:40:34.559Z,14.40
2019-02-05T18:43:03.235Z,12.88
2019-02-05T18:45:31.634Z,14.55
2019-02-05T18:48:00.107Z,15.85
2019-02-05T18:50:30.363Z,14.63
2019-02-05T18:53:18.185Z,14.53
2019-02-05T18:55:47.796Z,16.97
2019-02-05T18:58:16.189Z,15.53
2019-02-05T19:00:45.606Z,18.10
2019-02-05T19:03:15.999Z,17.40
2019-02-05T19:05:44.414Z,17.62
2019-02-05T19:08:15.860Z,18.37
2019-02-05T19:10:43.641Z,18.80
2019-02-05T19:13:15.241Z,19.10
2019-02-05T19:15:44.084Z,16.00
2019-02-05T19:18:12.451Z,18.05
2019-02-05T19:20:40.840Z,18.30
2019-02-05T19:23:10.421Z,17.70
2019-02-05T19:25:40.641Z,18.57
2019-02-05T19:28:10.036Z,17.23
2019-02-05T19:30:40.093Z,19.07
2019-02-05T19:33:09.120Z,20.35
2019-02-05T19:35:37.483Z,18.90
2019-02-05T19:38:05.878Z,18.20
2019-02-05T19:40:34.413Z,18.30
2019-02-05T19:43:02.798Z,18.52
2019-02-05T19:45:51.277Z,19.57
2019-02-05T19:48:21.573Z,19.77
2019-02-05T19:50:51.070Z,20.50
2019-02-05T19:53:19.446Z,20.55
2019-02-05T19:55:49.577Z,19.48
2019-02-05T19:58:17.952Z,20.02
2019-02-05T20:00:46.323Z,19.62
2019-02-05T20:03:16.003Z,18.70
2019-02-05T20:05:44.684Z,18.82
2019-02-05T20:08:14.709Z,20.00
2019-02-05T20:10:44.774Z,20.52
2019-02-05T20:13:13.147Z,19.70
2019-02-05T20:15:41.688Z,17.50
2019-02-05T20:18:10.476Z,19.45
2019-02-05T20:20:39.064Z,20.52
2019-02-05T20:23:07.621Z,20.35
2019-02-05T20:25:35.988Z,21.48
2019-02-05T20:28:04.347Z,21.05
2019-02-05T20:30:33.062Z,21.90
2019-02-05T20:33:01.422Z,22.05
2019-02-05T20:35:37.819Z,21.68
2019-02-05T20:38:06.441Z,21.05
2019-02-05T20:40:35.577Z,21.00
2019-02-05T20:43:06.135Z,20.30
2019-02-05T20:45:34.802Z,20.70
2019-02-05T20:48:04.171Z,21.57
2019-02-05T20:50:32.572Z,20.90
2019-02-05T20:53:13.013Z,21.15
2019-02-05T20:55:31.649Z,21.45
2019-02-05T20:58:00.891Z,21.35
2019-02-05T21:00:33.683Z,22.65
2019-02-05T21:03:02.350Z,22.05
2019-02-05T21:05:30.716Z,22.80
2019-02-05T21:07:59.470Z,23.98
2019-02-05T21:10:48.915Z,23.87
2019-02-05T21:13:17.271Z,22.40
2019-02-05T21:15:45.641Z,22.90
2019-02-05T21:18:14.075Z,23.45
2019-02-05T21:20:44.340Z,21.93
2019-02-05T21:23:12.711Z,22.32
2019-02-05T21:25:41.411Z,22.35
2019-02-05T21:28:09.787Z,22.05
2019-02-05T21:30:38.163Z,22.37
2019-02-05T21:33:06.848Z,23.95
2019-02-05T21:35:35.201Z,22.77
2019-02-05T21:38:03.559Z,23.70
2019-02-05T21:40:34.018Z,25.15
2019-02-05T21:43:02.403Z,24.27
2019-02-05T21:45:32.119Z,22.40
2019-02-05T21:48:00.476Z,24.30
2019-02-05T21:50:28.835Z,24.80
2019-02-05T21:52:58.481Z,22.52
2019-02-05T21:55:27.374Z,24.07
2019-02-05T21:57:56.094Z,24.05
2019-02-05T22:00:48.632Z,24.32
2019-02-05T22:03:17.035Z,25.80
2019-02-05T22:05:45.699Z,23.22
2019-02-05T22:08:14.025Z,24.98
2019-02-05T22:10:42.424Z,22.90
2019-02-05T22:13:10.787Z,23.70
2019-02-05T22:15:39.170Z,23.40
2019-02-05T22:18:07.543Z,25.35
2019-02-05T22:20:35.926Z,23.12
2019-02-05T22:23:04.335Z,24.32
2019-02-05T22:25:33.139Z,22.90
2019-02-05T22:28:01.875Z,25.50
2019-02-05T22:30:37.015Z,24.02
2019-02-05T22:33:28.207Z,20.95
2019-02-05T22:35:56.482Z,23.80
2019-02-05T22:38:25.183Z,22.02
2019-02-05T22:40:53.594Z,20.62
2019-02-05T22:43:22.758Z,20.72
2019-02-05T22:45:51.128Z,22.42
2019-02-05T22:48:19.528Z,21.70
2019-02-05T22:50:48.711Z,21.80
2019-02-05T22:53:17.088Z,22.77
2019-02-05T22:55:45.775Z,22.15
2019-02-05T22:58:15.797Z,22.42
2019-02-05T23:01:04.030Z,20.50
2019-02-05T23:03:35.818Z,20.15
2019-02-05T23:06:38.873Z,20.70
2019-02-05T23:09:39.706Z,21.33
2019-02-05T23:12:34.890Z,24.45
2019-02-05T23:15:24.304Z,23.62
2019-02-05T23:17:52.739Z,25.12
2019-02-05T23:20:21.124Z,25.52
2019-02-05T23:22:49.821Z,26.12
2019-02-05T23:25:18.221Z,26.80
2019-02-05T23:27:47.231Z,25.23
2019-02-05T23:30:18.652Z,21.27
2019-02-05T23:32:47.346Z,22.82
2019-02-05T23:35:15.906Z,22.98
2019-02-05T23:37:44.583Z,21.30
2019-02-05T23:40:13.547Z,23.02
2019-02-05T23:42:41.930Z,23.65
2019-02-05T23:45:12.948Z,24.98
2019-02-05T23:47:41.344Z,22.90
2019-02-05T23:50:30.752Z,22.02
2019-02-05T23:52:59.455Z,21.40
2019-02-05T23:55:27.815Z,21.30
2019-02-05T23:57:56.206Z,19.48
